sensor_id;sensor_type;location;lat;lon;timestamp;pressure;altitude;pressure_sealevel;temperature
19061;BMP280;9663;48.996;8.334;2023-06-10T00:00:50;99805.16;;;25.65
19061;BMP280;9663;48.996;8.334;2023-06-10T00:03:16;99813.19;;;25.62
19061;BMP280;9663;48.996;8.334;2023-06-10T00:05:43;99802.13;;;25.58
19061;BMP280;9663;48.996;8.334;2023-06-10T00:08:08;99800.72;;;25.54
19061;BMP280;9663;48.996;8.334;2023-06-10T00:10:37;99798.34;;;25.51
19061;BMP280;9663;48.996;8.334;2023-06-10T00:13:07;99796.91;;;25.47
19061;BMP280;9663;48.996;8.334;2023-06-10T00:15:37;99794.63;;;25.43
19061;BMP280;9663;48.996;8.334;2023-06-10T00:18:04;99801.81;;;25.39
19061;BMP280;9663;48.996;8.334;2023-06-10T00:20:30;99799.41;;;25.36
19061;BMP280;9663;48.996;8.334;2023-06-10T00:22:58;99795.31;;;25.34
19061;BMP280;9663;48.996;8.334;2023-06-10T00:25:24;99801.53;;;25.32
19061;BMP280;9663;48.996;8.334;2023-06-10T00:27:51;99810.38;;;25.29
19061;BMP280;9663;48.996;8.334;2023-06-10T00:30:17;99804.53;;;25.26
19061;BMP280;9663;48.996;8.334;2023-06-10T00:32:43;99808.09;;;25.25
19061;BMP280;9663;48.996;8.334;2023-06-10T00:35:08;99811.00;;;25.20
19061;BMP280;9663;48.996;8.334;2023-06-10T00:37:34;99807.78;;;25.17
19061;BMP280;9663;48.996;8.334;2023-06-10T00:40:04;99807.06;;;25.15
19061;BMP280;9663;48.996;8.334;2023-06-10T00:42:30;99798.69;;;25.11
19061;BMP280;9663;48.996;8.334;2023-06-10T00:44:56;99799.00;;;25.07
19061;BMP280;9663;48.996;8.334;2023-06-10T00:47:22;99791.41;;;25.04
19061;BMP280;9663;48.996;8.334;2023-06-10T00:49:50;99801.78;;;25.04
19061;BMP280;9663;48.996;8.334;2023-06-10T00:52:18;99789.03;;;25.01
19061;BMP280;9663;48.996;8.334;2023-06-10T00:54:45;99796.00;;;25.00
19061;BMP280;9663;48.996;8.334;2023-06-10T00:57:12;99793.50;;;24.99
19061;BMP280;9663;48.996;8.334;2023-06-10T00:59:47;99789.44;;;24.95
19061;BMP280;9663;48.996;8.334;2023-06-10T01:02:13;99794.72;;;24.93
19061;BMP280;9663;48.996;8.334;2023-06-10T01:04:39;99788.81;;;24.91
19061;BMP280;9663;48.996;8.334;2023-06-10T01:07:32;99789.34;;;24.84
19061;BMP280;9663;48.996;8.334;2023-06-10T01:10:23;99791.13;;;24.84
19061;BMP280;9663;48.996;8.334;2023-06-10T01:13:07;99781.75;;;24.81
19061;BMP280;9663;48.996;8.334;2023-06-10T01:15:35;99789.44;;;24.83
19061;BMP280;9663;48.996;8.334;2023-06-10T01:18:04;99797.31;;;24.81
19061;BMP280;9663;48.996;8.334;2023-06-10T01:20:32;99788.00;;;24.79
19061;BMP280;9663;48.996;8.334;2023-06-10T01:22:59;99789.88;;;24.77
19061;BMP280;9663;48.996;8.334;2023-06-10T01:25:27;99792.59;;;24.75
19061;BMP280;9663;48.996;8.334;2023-06-10T01:28:09;99795.59;;;24.69
19061;BMP280;9663;48.996;8.334;2023-06-10T01:31:31;99799.00;;;24.57
19061;BMP280;9663;48.996;8.334;2023-06-10T01:34:01;99800.56;;;24.60
19061;BMP280;9663;48.996;8.334;2023-06-10T01:36:31;99800.66;;;24.58
19061;BMP280;9663;48.996;8.334;2023-06-10T01:38:59;99807.72;;;24.56
19061;BMP280;9663;48.996;8.334;2023-06-10T01:41:25;99802.72;;;24.53
19061;BMP280;9663;48.996;8.334;2023-06-10T01:43:51;99799.41;;;24.51
19061;BMP280;9663;48.996;8.334;2023-06-10T01:46:17;99805.66;;;24.49
19061;BMP280;9663;48.996;8.334;2023-06-10T01:48:47;99802.44;;;24.46
19061;BMP280;9663;48.996;8.334;2023-06-10T01:51:12;99798.38;;;24.42
19061;BMP280;9663;48.996;8.334;2023-06-10T01:53:38;99801.16;;;24.39
19061;BMP280;9663;48.996;8.334;2023-06-10T01:56:04;99803.34;;;24.32
19061;BMP280;9663;48.996;8.334;2023-06-10T01:58:30;99800.94;;;24.29
19061;BMP280;9663;48.996;8.334;2023-06-10T02:00:55;99795.84;;;24.28
19061;BMP280;9663;48.996;8.334;2023-06-10T02:03:21;99801.34;;;24.23
19061;BMP280;9663;48.996;8.334;2023-06-10T02:05:47;99798.94;;;24.20
19061;BMP280;9663;48.996;8.334;2023-06-10T02:08:12;99804.31;;;24.17
19061;BMP280;9663;48.996;8.334;2023-06-10T02:10:38;99808.06;;;24.13
19061;BMP280;9663;48.996;8.334;2023-06-10T02:13:04;99812.72;;;24.08
19061;BMP280;9663;48.996;8.334;2023-06-10T02:15:30;99816.53;;;24.03
19061;BMP280;9663;48.996;8.334;2023-06-10T02:17:56;99817.84;;;23.96
19061;BMP280;9663;48.996;8.334;2023-06-10T02:20:22;99822.50;;;23.91
19061;BMP280;9663;48.996;8.334;2023-06-10T02:22:47;99825.59;;;23.84
19061;BMP280;9663;48.996;8.334;2023-06-10T02:25:13;99830.53;;;23.74
19061;BMP280;9663;48.996;8.334;2023-06-10T02:27:39;99829.25;;;23.67
19061;BMP280;9663;48.996;8.334;2023-06-10T02:30:05;99828.81;;;23.61
19061;BMP280;9663;48.996;8.334;2023-06-10T02:32:31;99841.28;;;23.55
19061;BMP280;9663;48.996;8.334;2023-06-10T02:34:57;99843.41;;;23.48
19061;BMP280;9663;48.996;8.334;2023-06-10T02:37:23;99830.75;;;23.44
19061;BMP280;9663;48.996;8.334;2023-06-10T02:39:49;99844.72;;;23.41
19061;BMP280;9663;48.996;8.334;2023-06-10T02:42:14;99843.38;;;23.36
19061;BMP280;9663;48.996;8.334;2023-06-10T02:44:40;99845.19;;;23.34
19061;BMP280;9663;48.996;8.334;2023-06-10T02:47:06;99841.88;;;23.32
19061;BMP280;9663;48.996;8.334;2023-06-10T02:49:31;99844.56;;;23.30
19061;BMP280;9663;48.996;8.334;2023-06-10T02:51:57;99851.50;;;23.30
19061;BMP280;9663;48.996;8.334;2023-06-10T02:54:26;99852.31;;;23.30
19061;BMP280;9663;48.996;8.334;2023-06-10T02:56:52;99855.84;;;23.29
19061;BMP280;9663;48.996;8.334;2023-06-10T02:59:18;99864.44;;;23.30
19061;BMP280;9663;48.996;8.334;2023-06-10T03:01:46;99865.34;;;23.29
19061;BMP280;9663;48.996;8.334;2023-06-10T03:04:12;99864.53;;;23.28
19061;BMP280;9663;48.996;8.334;2023-06-10T03:06:39;99864.63;;;23.27
19061;BMP280;9663;48.996;8.334;2023-06-10T03:09:06;99861.47;;;23.22
19061;BMP280;9663;48.996;8.334;2023-06-10T03:11:35;99866.94;;;23.17
19061;BMP280;9663;48.996;8.334;2023-06-10T03:14:01;99871.47;;;23.14
19061;BMP280;9663;48.996;8.334;2023-06-10T03:16:26;99866.59;;;23.10
19061;BMP280;9663;48.996;8.334;2023-06-10T03:18:53;99871.94;;;23.07
19061;BMP280;9663;48.996;8.334;2023-06-10T03:21:19;99873.03;;;23.03
19061;BMP280;9663;48.996;8.334;2023-06-10T03:23:45;99867.13;;;23.01
19061;BMP280;9663;48.996;8.334;2023-06-10T03:26:11;99873.31;;;22.98
19061;BMP280;9663;48.996;8.334;2023-06-10T03:28:38;99875.91;;;22.98
19061;BMP280;9663;48.996;8.334;2023-06-10T03:31:03;99878.50;;;22.98
19061;BMP280;9663;48.996;8.334;2023-06-10T03:33:29;99875.16;;;22.96
19061;BMP280;9663;48.996;8.334;2023-06-10T03:35:55;99874.31;;;22.96
19061;BMP280;9663;48.996;8.334;2023-06-10T03:38:21;99877.00;;;22.94
19061;BMP280;9663;48.996;8.334;2023-06-10T03:40:47;99880.53;;;22.93
19061;BMP280;9663;48.996;8.334;2023-06-10T03:43:13;99874.69;;;22.90
19061;BMP280;9663;48.996;8.334;2023-06-10T03:45:38;99880.84;;;22.87
19061;BMP280;9663;48.996;8.334;2023-06-10T03:48:05;99880.84;;;22.87
19061;BMP280;9663;48.996;8.334;2023-06-10T03:50:31;99878.34;;;22.86
19061;BMP280;9663;48.996;8.334;2023-06-10T03:52:58;99884.47;;;22.85
19061;BMP280;9663;48.996;8.334;2023-06-10T03:55:23;99881.88;;;22.85
19061;BMP280;9663;48.996;8.334;2023-06-10T03:57:50;99880.13;;;22.85
19061;BMP280;9663;48.996;8.334;2023-06-10T04:00:16;99887.78;;;22.87
19061;BMP280;9663;48.996;8.334;2023-06-10T04:02:44;99887.78;;;22.87
19061;BMP280;9663;48.996;8.334;2023-06-10T04:05:16;99889.34;;;22.89
19061;BMP280;9663;48.996;8.334;2023-06-10T04:07:43;99892.69;;;22.91
19061;BMP280;9663;48.996;8.334;2023-06-10T04:10:11;99891.69;;;22.94
19061;BMP280;9663;48.996;8.334;2023-06-10T04:12:37;99895.97;;;22.95
19061;BMP280;9663;48.996;8.334;2023-06-10T04:15:04;99903.50;;;22.98
19061;BMP280;9663;48.996;8.334;2023-06-10T04:17:30;99890.56;;;22.98
19061;BMP280;9663;48.996;8.334;2023-06-10T04:19:57;99893.81;;;23.01
19061;BMP280;9663;48.996;8.334;2023-06-10T04:22:24;99903.06;;;23.05
19061;BMP280;9663;48.996;8.334;2023-06-10T04:24:50;99898.63;;;23.07
19061;BMP280;9663;48.996;8.334;2023-06-10T04:27:15;99902.03;;;23.08
19061;BMP280;9663;48.996;8.334;2023-06-10T04:29:41;99911.19;;;23.13
19061;BMP280;9663;48.996;8.334;2023-06-10T04:32:07;99902.41;;;23.16
19061;BMP280;9663;48.996;8.334;2023-06-10T04:34:34;99910.72;;;23.20
19061;BMP280;9663;48.996;8.334;2023-06-10T04:37:00;99912.00;;;23.27
19061;BMP280;9663;48.996;8.334;2023-06-10T04:39:25;99904.78;;;23.32
19061;BMP280;9663;48.996;8.334;2023-06-10T04:41:51;99912.09;;;23.40
19061;BMP280;9663;48.996;8.334;2023-06-10T04:44:17;99906.56;;;23.46
19061;BMP280;9663;48.996;8.334;2023-06-10T04:46:44;99917.38;;;23.52
19061;BMP280;9663;48.996;8.334;2023-06-10T04:49:11;99920.38;;;23.58
19061;BMP280;9663;48.996;8.334;2023-06-10T04:51:39;99917.56;;;23.63
19061;BMP280;9663;48.996;8.334;2023-06-10T04:54:05;99919.69;;;23.70
19061;BMP280;9663;48.996;8.334;2023-06-10T04:56:31;99919.19;;;23.78
19061;BMP280;9663;48.996;8.334;2023-06-10T04:59:00;99921.31;;;23.85
19061;BMP280;9663;48.996;8.334;2023-06-10T05:01:26;99924.44;;;23.90
19061;BMP280;9663;48.996;8.334;2023-06-10T05:03:53;99920.53;;;23.97
19061;BMP280;9663;48.996;8.334;2023-06-10T05:06:18;99924.38;;;24.04
19061;BMP280;9663;48.996;8.334;2023-06-10T05:08:44;99908.28;;;24.13
19061;BMP280;9663;48.996;8.334;2023-06-10T05:11:09;99911.31;;;24.19
19061;BMP280;9663;48.996;8.334;2023-06-10T05:13:35;99917.66;;;24.28
19061;BMP280;9663;48.996;8.334;2023-06-10T05:16:01;99924.84;;;24.37
19061;BMP280;9663;48.996;8.334;2023-06-10T05:18:27;99920.00;;;24.45
19061;BMP280;9663;48.996;8.334;2023-06-10T05:20:52;99926.34;;;24.53
19061;BMP280;9663;48.996;8.334;2023-06-10T05:23:20;99933.63;;;24.60
19061;BMP280;9663;48.996;8.334;2023-06-10T05:25:45;99934.88;;;24.67
19061;BMP280;9663;48.996;8.334;2023-06-10T05:28:11;99924.75;;;24.77
19061;BMP280;9663;48.996;8.334;2023-06-10T05:30:37;99929.41;;;24.84
19061;BMP280;9663;48.996;8.334;2023-06-10T05:33:04;99926.19;;;24.93
19061;BMP280;9663;48.996;8.334;2023-06-10T05:35:30;99927.28;;;25.03
19061;BMP280;9663;48.996;8.334;2023-06-10T05:37:56;99932.75;;;25.11
19061;BMP280;9663;48.996;8.334;2023-06-10T05:40:22;99929.03;;;25.15
19061;BMP280;9663;48.996;8.334;2023-06-10T05:42:48;99931.31;;;25.19
19061;BMP280;9663;48.996;8.334;2023-06-10T05:45:14;99938.78;;;25.24
19061;BMP280;9663;48.996;8.334;2023-06-10T05:47:40;99936.59;;;25.30
19061;BMP280;9663;48.996;8.334;2023-06-10T05:50:06;99938.06;;;25.34
19061;BMP280;9663;48.996;8.334;2023-06-10T05:52:34;99940.09;;;25.41
19061;BMP280;9663;48.996;8.334;2023-06-10T05:55:02;99937.09;;;25.47
19061;BMP280;9663;48.996;8.334;2023-06-10T05:57:27;99938.31;;;25.54
19061;BMP280;9663;48.996;8.334;2023-06-10T05:59:53;99941.97;;;25.64
19061;BMP280;9663;48.996;8.334;2023-06-10T06:02:19;99938.00;;;25.71
19061;BMP280;9663;48.996;8.334;2023-06-10T06:04:44;99938.41;;;25.77
19061;BMP280;9663;48.996;8.334;2023-06-10T06:07:10;99937.25;;;25.81
19061;BMP280;9663;48.996;8.334;2023-06-10T06:09:36;99939.31;;;25.89
19061;BMP280;9663;48.996;8.334;2023-06-10T06:12:01;99941.13;;;25.99
19061;BMP280;9663;48.996;8.334;2023-06-10T06:14:31;99933.50;;;26.09
19061;BMP280;9663;48.996;8.334;2023-06-10T06:16:57;99943.38;;;26.16
19061;BMP280;9663;48.996;8.334;2023-06-10T06:19:22;99937.00;;;26.20
19061;BMP280;9663;48.996;8.334;2023-06-10T06:21:48;99944.03;;;26.30
19061;BMP280;9663;48.996;8.334;2023-06-10T06:24:15;99948.47;;;26.41
19061;BMP280;9663;48.996;8.334;2023-06-10T06:26:44;99944.38;;;26.49
19061;BMP280;9663;48.996;8.334;2023-06-10T06:29:10;99944.75;;;26.56
19061;BMP280;9663;48.996;8.334;2023-06-10T06:31:36;99947.72;;;26.62
19061;BMP280;9663;48.996;8.334;2023-06-10T06:34:02;99953.44;;;26.67
19061;BMP280;9663;48.996;8.334;2023-06-10T06:36:27;99957.00;;;26.77
19061;BMP280;9663;48.996;8.334;2023-06-10T06:38:53;99951.84;;;26.88
19061;BMP280;9663;48.996;8.334;2023-06-10T06:41:19;99945.00;;;26.98
19061;BMP280;9663;48.996;8.334;2023-06-10T06:43:45;99946.00;;;27.08
19061;BMP280;9663;48.996;8.334;2023-06-10T06:46:10;99944.78;;;27.11
19061;BMP280;9663;48.996;8.334;2023-06-10T06:48:36;99949.56;;;27.17
19061;BMP280;9663;48.996;8.334;2023-06-10T06:51:01;99954.03;;;27.26
19061;BMP280;9663;48.996;8.334;2023-06-10T06:53:28;99953.09;;;27.38
19061;BMP280;9663;48.996;8.334;2023-06-10T06:55:53;99951.47;;;27.48
19061;BMP280;9663;48.996;8.334;2023-06-10T06:58:19;99948.63;;;27.62
19061;BMP280;9663;48.996;8.334;2023-06-10T07:00:44;99948.03;;;27.69
19061;BMP280;9663;48.996;8.334;2023-06-10T07:03:10;99943.03;;;27.77
19061;BMP280;9663;48.996;8.334;2023-06-10T07:05:37;99946.47;;;27.89
19061;BMP280;9663;48.996;8.334;2023-06-10T07:08:03;99949.16;;;27.98
19061;BMP280;9663;48.996;8.334;2023-06-10T07:10:29;99945.97;;;28.05
19061;BMP280;9663;48.996;8.334;2023-06-10T07:12:54;99945.25;;;28.14
19061;BMP280;9663;48.996;8.334;2023-06-10T07:15:20;99956.84;;;28.21
19061;BMP280;9663;48.996;8.334;2023-06-10T07:17:46;99952.41;;;28.33
19061;BMP280;9663;48.996;8.334;2023-06-10T07:20:12;99951.28;;;28.46
19061;BMP280;9663;48.996;8.334;2023-06-10T07:22:38;99953.75;;;28.58
19061;BMP280;9663;48.996;8.334;2023-06-10T07:25:07;99957.16;;;28.70
19061;BMP280;9663;48.996;8.334;2023-06-10T07:27:33;99954.16;;;28.74
19061;BMP280;9663;48.996;8.334;2023-06-10T07:29:59;99959.00;;;28.79
19061;BMP280;9663;48.996;8.334;2023-06-10T07:32:26;99953.97;;;28.86
19061;BMP280;9663;48.996;8.334;2023-06-10T07:34:52;99945.38;;;28.95
19061;BMP280;9663;48.996;8.334;2023-06-10T07:37:18;99934.97;;;29.05
19061;BMP280;9663;48.996;8.334;2023-06-10T07:39:45;99948.66;;;29.18
19061;BMP280;9663;48.996;8.334;2023-06-10T07:42:10;99949.44;;;29.29
19061;BMP280;9663;48.996;8.334;2023-06-10T07:44:36;99940.28;;;29.44
19061;BMP280;9663;48.996;8.334;2023-06-10T07:47:02;99944.19;;;29.59
19061;BMP280;9663;48.996;8.334;2023-06-10T07:49:28;99942.72;;;29.66
19061;BMP280;9663;48.996;8.334;2023-06-10T07:51:57;99939.28;;;29.74
19061;BMP280;9663;48.996;8.334;2023-06-10T07:54:22;99946.38;;;29.83
19061;BMP280;9663;48.996;8.334;2023-06-10T07:56:48;99941.84;;;29.95
19061;BMP280;9663;48.996;8.334;2023-06-10T07:59:14;99941.31;;;30.10
19061;BMP280;9663;48.996;8.334;2023-06-10T08:01:40;99938.84;;;30.18
19061;BMP280;9663;48.996;8.334;2023-06-10T08:04:06;99934.84;;;30.23
19061;BMP280;9663;48.996;8.334;2023-06-10T08:06:32;99938.47;;;30.32
19061;BMP280;9663;48.996;8.334;2023-06-10T08:08:58;99934.38;;;30.39
19061;BMP280;9663;48.996;8.334;2023-06-10T08:11:25;99938.75;;;30.48
19061;BMP280;9663;48.996;8.334;2023-06-10T08:13:54;99941.66;;;30.54
19061;BMP280;9663;48.996;8.334;2023-06-10T08:16:19;99940.97;;;30.61
19061;BMP280;9663;48.996;8.334;2023-06-10T08:18:45;99942.59;;;30.72
19061;BMP280;9663;48.996;8.334;2023-06-10T08:21:11;99934.03;;;30.79
19061;BMP280;9663;48.996;8.334;2023-06-10T08:23:36;99931.56;;;30.87
19061;BMP280;9663;48.996;8.334;2023-06-10T08:26:02;99937.63;;;30.97
19061;BMP280;9663;48.996;8.334;2023-06-10T08:28:28;99924.50;;;31.06
19061;BMP280;9663;48.996;8.334;2023-06-10T08:30:53;99926.44;;;31.14
19061;BMP280;9663;48.996;8.334;2023-06-10T08:33:19;99919.09;;;31.17
19061;BMP280;9663;48.996;8.334;2023-06-10T08:35:45;99925.84;;;31.20
19061;BMP280;9663;48.996;8.334;2023-06-10T08:38:10;99922.81;;;31.24
19061;BMP280;9663;48.996;8.334;2023-06-10T08:40:37;99917.25;;;31.37
19061;BMP280;9663;48.996;8.334;2023-06-10T08:43:08;99915.84;;;31.51
19061;BMP280;9663;48.996;8.334;2023-06-10T08:45:36;99929.41;;;31.64
19061;BMP280;9663;48.996;8.334;2023-06-10T08:48:05;99923.00;;;31.76
19061;BMP280;9663;48.996;8.334;2023-06-10T08:50:37;99915.47;;;31.90
19061;BMP280;9663;48.996;8.334;2023-06-10T08:53:06;99907.78;;;32.06
19061;BMP280;9663;48.996;8.334;2023-06-10T08:55:35;99909.88;;;32.20
19061;BMP280;9663;48.996;8.334;2023-06-10T08:58:02;99911.97;;;32.34
19061;BMP280;9663;48.996;8.334;2023-06-10T09:00:30;99906.69;;;32.43
19061;BMP280;9663;48.996;8.334;2023-06-10T09:02:58;99911.69;;;32.54
19061;BMP280;9663;48.996;8.334;2023-06-10T09:05:26;99898.47;;;32.64
19061;BMP280;9663;48.996;8.334;2023-06-10T09:07:53;99906.25;;;32.73
19061;BMP280;9663;48.996;8.334;2023-06-10T09:10:19;99895.47;;;32.76
19061;BMP280;9663;48.996;8.334;2023-06-10T09:12:45;99904.00;;;32.78
19061;BMP280;9663;48.996;8.334;2023-06-10T09:15:11;99904.38;;;32.83
19061;BMP280;9663;48.996;8.334;2023-06-10T09:17:38;99893.09;;;32.90
19061;BMP280;9663;48.996;8.334;2023-06-10T09:20:09;99894.81;;;32.99
19061;BMP280;9663;48.996;8.334;2023-06-10T09:22:35;99895.38;;;33.11
19061;BMP280;9663;48.996;8.334;2023-06-10T09:25:05;99890.16;;;33.19
19061;BMP280;9663;48.996;8.334;2023-06-10T09:27:50;99884.25;;;33.24
19061;BMP280;9663;48.996;8.334;2023-06-10T09:30:33;99887.91;;;33.31
19061;BMP280;9663;48.996;8.334;2023-06-10T09:33:11;99893.22;;;33.39
19061;BMP280;9663;48.996;8.334;2023-06-10T09:35:48;99890.28;;;33.42
19061;BMP280;9663;48.996;8.334;2023-06-10T09:38:20;99893.59;;;33.44
19061;BMP280;9663;48.996;8.334;2023-06-10T09:40:52;99886.50;;;33.45
19061;BMP280;9663;48.996;8.334;2023-06-10T09:43:19;99881.63;;;33.50
19061;BMP280;9663;48.996;8.334;2023-06-10T09:45:49;99892.66;;;33.61
19061;BMP280;9663;48.996;8.334;2023-06-10T09:48:15;99893.53;;;33.69
19061;BMP280;9663;48.996;8.334;2023-06-10T09:50:45;99881.06;;;33.79
19061;BMP280;9663;48.996;8.334;2023-06-10T09:53:11;99881.78;;;33.89
19061;BMP280;9663;48.996;8.334;2023-06-10T09:55:41;99870.09;;;34.00
19061;BMP280;9663;48.996;8.334;2023-06-10T09:58:07;99880.47;;;34.09
19061;BMP280;9663;48.996;8.334;2023-06-10T10:00:34;99883.13;;;34.17
19061;BMP280;9663;48.996;8.334;2023-06-10T10:03:01;99885.75;;;34.25
19061;BMP280;9663;48.996;8.334;2023-06-10T10:05:27;99881.50;;;34.32
19061;BMP280;9663;48.996;8.334;2023-06-10T10:07:53;99879.06;;;34.38
19061;BMP280;9663;48.996;8.334;2023-06-10T10:10:22;99865.69;;;34.40
19061;BMP280;9663;48.996;8.334;2023-06-10T10:12:54;99880.16;;;34.36
19061;BMP280;9663;48.996;8.334;2023-06-10T10:15:23;99876.72;;;34.35
19061;BMP280;9663;48.996;8.334;2023-06-10T10:17:57;99876.91;;;34.42
19061;BMP280;9663;48.996;8.334;2023-06-10T10:20:30;99869.84;;;34.50
19061;BMP280;9663;48.996;8.334;2023-06-10T10:22:57;99871.94;;;34.62
19061;BMP280;9663;48.996;8.334;2023-06-10T10:25:28;99868.00;;;34.74
19061;BMP280;9663;48.996;8.334;2023-06-10T10:28:10;99866.03;;;34.84
19061;BMP280;9663;48.996;8.334;2023-06-10T10:30:48;99866.81;;;34.93
19061;BMP280;9663;48.996;8.334;2023-06-10T10:33:38;99867.13;;;34.97
19061;BMP280;9663;48.996;8.334;2023-06-10T10:36:07;99857.41;;;35.06
19061;BMP280;9663;48.996;8.334;2023-06-10T10:38:34;99861.00;;;35.05
19061;BMP280;9663;48.996;8.334;2023-06-10T10:41:01;99859.53;;;35.10
19061;BMP280;9663;48.996;8.334;2023-06-10T10:43:30;99869.03;;;35.19
19061;BMP280;9663;48.996;8.334;2023-06-10T10:46:01;99873.28;;;35.28
19061;BMP280;9663;48.996;8.334;2023-06-10T10:48:37;99867.84;;;35.38
19061;BMP280;9663;48.996;8.334;2023-06-10T10:51:03;99869.59;;;35.53
19061;BMP280;9663;48.996;8.334;2023-06-10T10:53:30;99856.66;;;35.66
19061;BMP280;9663;48.996;8.334;2023-06-10T10:56:16;99862.75;;;35.66
19061;BMP280;9663;48.996;8.334;2023-06-10T10:59:05;99856.81;;;35.64
19061;BMP280;9663;48.996;8.334;2023-06-10T11:01:42;99846.06;;;35.74
19061;BMP280;9663;48.996;8.334;2023-06-10T11:04:12;99849.59;;;35.88
19061;BMP280;9663;48.996;8.334;2023-06-10T11:06:38;99851.22;;;35.97
19061;BMP280;9663;48.996;8.334;2023-06-10T11:09:28;99839.81;;;35.97
19061;BMP280;9663;48.996;8.334;2023-06-10T11:11:57;99835.41;;;36.12
19061;BMP280;9663;48.996;8.334;2023-06-10T11:14:28;99829.56;;;36.24
19061;BMP280;9663;48.996;8.334;2023-06-10T11:16:57;99836.34;;;36.41
19061;BMP280;9663;48.996;8.334;2023-06-10T11:19:34;99835.56;;;36.55
19061;BMP280;9663;48.996;8.334;2023-06-10T11:22:05;99832.16;;;36.69
19061;BMP280;9663;48.996;8.334;2023-06-10T11:24:31;99827.97;;;37.03
19061;BMP280;9663;48.996;8.334;2023-06-10T11:27:21;99824.94;;;38.25
19061;BMP280;9663;48.996;8.334;2023-06-10T11:32:31;99823.66;;;40.47
19061;BMP280;9663;48.996;8.334;2023-06-10T11:34:57;99829.38;;;41.46
19061;BMP280;9663;48.996;8.334;2023-06-10T11:37:23;99811.84;;;42.30
19061;BMP280;9663;48.996;8.334;2023-06-10T11:39:56;99820.06;;;43.13
19061;BMP280;9663;48.996;8.334;2023-06-10T11:42:24;99815.34;;;43.62
19061;BMP280;9663;48.996;8.334;2023-06-10T11:44:53;99799.75;;;43.88
19061;BMP280;9663;48.996;8.334;2023-06-10T11:47:19;99805.66;;;44.30
19061;BMP280;9663;48.996;8.334;2023-06-10T11:49:49;99806.59;;;44.70
19061;BMP280;9663;48.996;8.334;2023-06-10T11:52:30;99802.00;;;45.05
19061;BMP280;9663;48.996;8.334;2023-06-10T11:55:04;99802.09;;;45.21
19061;BMP280;9663;48.996;8.334;2023-06-10T11:57:34;99803.06;;;45.15
19061;BMP280;9663;48.996;8.334;2023-06-10T12:00:05;99812.31;;;44.73
19061;BMP280;9663;48.996;8.334;2023-06-10T12:02:31;99801.75;;;44.44
19061;BMP280;9663;48.996;8.334;2023-06-10T12:05:12;99807.53;;;44.87
19061;BMP280;9663;48.996;8.334;2023-06-10T12:07:38;99809.66;;;45.63
19061;BMP280;9663;48.996;8.334;2023-06-10T12:10:04;99811.13;;;46.31
19061;BMP280;9663;48.996;8.334;2023-06-10T12:12:30;99796.22;;;46.72
19061;BMP280;9663;48.996;8.334;2023-06-10T12:14:58;99789.25;;;47.14
19061;BMP280;9663;48.996;8.334;2023-06-10T12:17:45;99794.69;;;47.66
19061;BMP280;9663;48.996;8.334;2023-06-10T12:20:30;99799.16;;;48.13
19061;BMP280;9663;48.996;8.334;2023-06-10T12:22:59;99790.81;;;48.46
19061;BMP280;9663;48.996;8.334;2023-06-10T12:25:29;99794.75;;;48.74
19061;BMP280;9663;48.996;8.334;2023-06-10T12:27:59;99798.03;;;48.86
19061;BMP280;9663;48.996;8.334;2023-06-10T12:30:27;99777.38;;;48.97
19061;BMP280;9663;48.996;8.334;2023-06-10T12:32:55;99779.88;;;49.18
19061;BMP280;9663;48.996;8.334;2023-06-10T12:35:23;99785.09;;;49.44
19061;BMP280;9663;48.996;8.334;2023-06-10T12:38:05;99783.47;;;49.53
19061;BMP280;9663;48.996;8.334;2023-06-10T12:40:38;99786.94;;;49.44
19061;BMP280;9663;48.996;8.334;2023-06-10T12:43:06;99776.19;;;49.58
19061;BMP280;9663;48.996;8.334;2023-06-10T12:45:37;99772.22;;;49.96
19061;BMP280;9663;48.996;8.334;2023-06-10T12:48:08;99774.91;;;50.30
19061;BMP280;9663;48.996;8.334;2023-06-10T12:50:44;99784.03;;;50.49
19061;BMP280;9663;48.996;8.334;2023-06-10T12:53:11;99776.19;;;50.57
19061;BMP280;9663;48.996;8.334;2023-06-10T12:55:38;99768.09;;;50.62
19061;BMP280;9663;48.996;8.334;2023-06-10T12:58:04;99765.13;;;50.64
19061;BMP280;9663;48.996;8.334;2023-06-10T13:00:30;99759.13;;;50.82
19061;BMP280;9663;48.996;8.334;2023-06-10T13:03:01;99754.19;;;50.98
19061;BMP280;9663;48.996;8.334;2023-06-10T13:05:28;99761.13;;;51.09
19061;BMP280;9663;48.996;8.334;2023-06-10T13:07:55;99767.88;;;51.17
19061;BMP280;9663;48.996;8.334;2023-06-10T13:10:21;99758.94;;;51.26
19061;BMP280;9663;48.996;8.334;2023-06-10T13:12:47;99763.38;;;51.45
19061;BMP280;9663;48.996;8.334;2023-06-10T13:15:14;99763.72;;;51.39
19061;BMP280;9663;48.996;8.334;2023-06-10T13:17:44;99751.53;;;51.41
19061;BMP280;9663;48.996;8.334;2023-06-10T13:20:11;99753.06;;;51.52
19061;BMP280;9663;48.996;8.334;2023-06-10T13:22:37;99750.59;;;51.61
19061;BMP280;9663;48.996;8.334;2023-06-10T13:25:03;99753.81;;;50.62
19061;BMP280;9663;48.996;8.334;2023-06-10T13:27:30;99755.91;;;49.21
19061;BMP280;9663;48.996;8.334;2023-06-10T13:29:56;99752.19;;;48.25
19061;BMP280;9663;48.996;8.334;2023-06-10T13:32:22;99749.88;;;48.03
19061;BMP280;9663;48.996;8.334;2023-06-10T13:34:47;99735.34;;;48.35
19061;BMP280;9663;48.996;8.334;2023-06-10T13:37:15;99753.88;;;48.82
19061;BMP280;9663;48.996;8.334;2023-06-10T13:39:43;99751.41;;;49.37
19061;BMP280;9663;48.996;8.334;2023-06-10T13:42:09;99733.94;;;49.74
19061;BMP280;9663;48.996;8.334;2023-06-10T13:44:34;99729.09;;;49.81
19061;BMP280;9663;48.996;8.334;2023-06-10T13:47:02;99736.34;;;49.51
19061;BMP280;9663;48.996;8.334;2023-06-10T13:49:28;99730.28;;;49.04
19061;BMP280;9663;48.996;8.334;2023-06-10T13:51:54;99731.13;;;48.54
19061;BMP280;9663;48.996;8.334;2023-06-10T13:54:20;99729.44;;;48.02
19061;BMP280;9663;48.996;8.334;2023-06-10T13:56:47;99727.31;;;47.46
19061;BMP280;9663;48.996;8.334;2023-06-10T13:59:12;99729.66;;;46.91
19061;BMP280;9663;48.996;8.334;2023-06-10T14:01:38;99723.16;;;46.28
19061;BMP280;9663;48.996;8.334;2023-06-10T14:04:06;99723.16;;;45.79
19061;BMP280;9663;48.996;8.334;2023-06-10T14:06:33;99719.84;;;45.44
19061;BMP280;9663;48.996;8.334;2023-06-10T14:09:00;99727.81;;;45.00
19061;BMP280;9663;48.996;8.334;2023-06-10T14:11:25;99725.34;;;44.60
19061;BMP280;9663;48.996;8.334;2023-06-10T14:13:51;99728.84;;;44.26
19061;BMP280;9663;48.996;8.334;2023-06-10T14:16:17;99716.06;;;44.05
19061;BMP280;9663;48.996;8.334;2023-06-10T14:18:43;99717.41;;;43.96
19061;BMP280;9663;48.996;8.334;2023-06-10T14:21:08;99708.03;;;43.94
19061;BMP280;9663;48.996;8.334;2023-06-10T14:23:34;99712.06;;;43.96
19061;BMP280;9663;48.996;8.334;2023-06-10T14:26:00;99709.63;;;43.95
19061;BMP280;9663;48.996;8.334;2023-06-10T14:28:27;99712.94;;;44.08